createdAt,value
2023-05-02T00:00:31.266Z,510.00
2023-05-02T00:01:31.407Z,508.00
2023-05-02T00:02:31.535Z,511.00
2023-05-02T00:03:31.518Z,510.00
2023-05-02T00:04:31.528Z,505.00
2023-05-02T00:05:31.551Z,505.00
2023-05-02T00:06:31.742Z,503.00
2023-05-02T00:07:31.756Z,513.00
2023-05-02T00:08:31.739Z,505.00
2023-05-02T00:09:31.977Z,508.00
2023-05-02T00:10:31.866Z,509.00
2023-05-02T00:11:31.907Z,512.00
2023-05-02T00:12:31.981Z,508.00
2023-05-02T00:13:32.031Z,515.00
2023-05-02T00:14:32.091Z,511.00
2023-05-02T00:15:32.154Z,508.00
2023-05-02T00:16:32.290Z,513.00
2023-05-02T00:17:32.505Z,507.00
2023-05-02T00:18:32.332Z,509.00
2023-05-02T00:19:32.380Z,510.00
2023-05-02T00:20:32.445Z,511.00
2023-05-02T00:21:32.496Z,510.00
2023-05-02T00:22:32.535Z,513.00
2023-05-02T00:23:32.602Z,504.00
2023-05-02T00:24:32.645Z,508.00
2023-05-02T00:25:32.716Z,503.00
2023-05-02T00:26:32.773Z,510.00
2023-05-02T00:27:32.855Z,504.00
2023-05-02T00:28:32.895Z,512.00
2023-05-02T00:29:32.948Z,509.00
2023-05-02T00:30:33.993Z,505.00
2023-05-02T00:31:33.108Z,508.00
2023-05-02T00:32:33.144Z,510.00
2023-05-02T00:33:33.180Z,509.00
2023-05-02T00:34:33.980Z,508.00
2023-05-02T00:35:33.297Z,509.00
2023-05-02T00:36:33.343Z,507.00
2023-05-02T00:37:33.390Z,504.00
2023-05-02T00:38:33.406Z,510.00
2023-05-02T00:39:33.416Z,504.00
2023-05-02T00:40:33.395Z,502.00
2023-05-02T00:41:33.422Z,502.00
2023-05-02T00:42:33.395Z,504.00
2023-05-02T00:43:33.411Z,510.00
2023-05-02T00:44:33.393Z,507.00
2023-05-02T00:45:33.374Z,506.00
2023-05-02T00:46:33.402Z,508.00
2023-05-02T00:47:33.426Z,508.00
2023-05-02T00:48:33.383Z,507.00
2023-05-02T00:49:33.443Z,503.00
2023-05-02T00:50:33.362Z,505.00
2023-05-02T00:51:33.347Z,504.00
2023-05-02T00:52:33.333Z,506.00
2023-05-02T00:53:33.325Z,505.00
2023-05-02T00:54:33.318Z,503.00
2023-05-02T00:55:33.295Z,502.00
2023-05-02T00:56:33.288Z,504.00
2023-05-02T00:57:33.993Z,509.00
2023-05-02T00:58:33.270Z,512.00
2023-05-02T00:59:33.256Z,508.00
2023-05-02T01:00:33.251Z,509.00
2023-05-02T01:01:33.537Z,508.00
2023-05-02T01:02:33.332Z,513.00
2023-05-02T01:03:33.348Z,507.00
2023-05-02T01:04:33.232Z,512.00
2023-05-02T01:05:33.288Z,504.00
2023-05-02T01:06:33.239Z,510.00
2023-05-02T01:07:34.071Z,507.00
2023-05-02T01:08:33.208Z,505.00
2023-05-02T01:09:33.501Z,505.00
2023-05-02T01:10:33.204Z,505.00
2023-05-02T01:11:33.201Z,509.00
2023-05-02T01:12:33.994Z,510.00
2023-05-02T01:13:33.180Z,510.00
2023-05-02T01:14:33.171Z,507.00
2023-05-02T01:15:33.158Z,507.00
2023-05-02T01:16:33.194Z,502.00
2023-05-02T01:17:33.159Z,509.00
2023-05-02T01:18:33.138Z,508.00
2023-05-02T01:19:33.149Z,507.00
2023-05-02T01:20:33.150Z,500.00
2023-05-02T01:21:33.190Z,514.00
2023-05-02T01:22:33.195Z,501.00
2023-05-02T01:23:33.216Z,503.00
2023-05-02T01:24:33.223Z,510.00
2023-05-02T01:25:33.237Z,500.00
2023-05-02T01:26:33.270Z,508.00
2023-05-02T01:27:33.250Z,508.00
2023-05-02T01:28:33.239Z,508.00
2023-05-02T01:29:33.238Z,511.00
2023-05-02T01:30:34.006Z,514.00
2023-05-02T01:31:33.325Z,508.00
2023-05-02T01:32:33.272Z,510.00
2023-05-02T01:33:33.246Z,509.00
2023-05-02T01:34:33.359Z,508.00
2023-05-02T01:35:33.298Z,511.00
2023-05-02T01:36:33.358Z,517.00
2023-05-02T01:37:33.299Z,512.00
2023-05-02T01:38:33.294Z,509.00
2023-05-02T01:39:33.342Z,510.00
2023-05-02T01:40:33.351Z,504.00
2023-05-02T01:41:33.330Z,510.00
2023-05-02T01:42:33.346Z,514.00
2023-05-02T01:43:33.353Z,501.00
2023-05-02T01:44:33.375Z,509.00
2023-05-02T01:45:33.416Z,507.00
2023-05-02T01:46:33.435Z,508.00
2023-05-02T01:47:33.412Z,508.00
2023-05-02T01:48:33.380Z,509.00
2023-05-02T01:49:33.387Z,509.00
2023-05-02T01:50:33.373Z,516.00
2023-05-02T01:51:33.382Z,512.00
2023-05-02T01:52:33.370Z,514.00
2023-05-02T01:53:33.376Z,514.00
2023-05-02T01:54:33.377Z,511.00
2023-05-02T01:55:33.368Z,506.00
2023-05-02T01:56:33.354Z,509.00
2023-05-02T01:57:33.356Z,510.00
2023-05-02T01:58:33.414Z,508.00
2023-05-02T01:59:33.342Z,509.00
2023-05-02T02:00:33.348Z,508.00
2023-05-02T02:01:33.407Z,507.00
2023-05-02T02:02:33.319Z,505.00
2023-05-02T02:03:33.378Z,506.00
2023-05-02T02:04:33.358Z,506.00
2023-05-02T02:05:33.387Z,506.00
2023-05-02T02:06:33.346Z,500.00
2023-05-02T02:07:33.331Z,507.00
2023-05-02T02:08:33.345Z,510.00
2023-05-02T02:09:33.362Z,511.00
2023-05-02T02:10:33.386Z,505.00
2023-05-02T02:11:33.390Z,507.00
2023-05-02T02:12:33.386Z,514.00
2023-05-02T02:13:33.380Z,510.00
2023-05-02T02:14:33.387Z,511.00
2023-05-02T02:15:33.410Z,511.00
2023-05-02T02:16:33.452Z,512.00
2023-05-02T02:17:33.439Z,509.00
2023-05-02T02:18:33.404Z,512.00
2023-05-02T02:19:33.443Z,514.00
2023-05-02T02:20:33.437Z,513.00
2023-05-02T02:21:33.400Z,507.00
2023-05-02T02:22:33.397Z,510.00
2023-05-02T02:23:33.485Z,508.00
2023-05-02T02:24:33.395Z,508.00
2023-05-02T02:25:33.539Z,509.00
2023-05-02T02:26:33.412Z,508.00
2023-05-02T02:27:34.022Z,508.00
2023-05-02T02:28:33.405Z,505.00
2023-05-02T02:29:33.408Z,508.00
2023-05-02T02:30:33.583Z,511.00
2023-05-02T02:31:33.464Z,507.00
2023-05-02T02:32:33.442Z,509.00
2023-05-02T02:33:33.430Z,509.00
2023-05-02T02:34:33.488Z,510.00
2023-05-02T02:35:33.510Z,515.00
2023-05-02T02:36:33.422Z,510.00
2023-05-02T02:37:33.416Z,508.00
2023-05-02T02:38:33.556Z,513.00
2023-05-02T02:39:33.420Z,507.00
2023-05-02T02:40:33.411Z,505.00
2023-05-02T02:41:33.402Z,505.00
2023-05-02T02:42:33.402Z,506.00
2023-05-02T02:43:33.393Z,510.00
2023-05-02T02:44:33.393Z,508.00
2023-05-02T02:45:33.459Z,503.00
2023-05-02T02:46:33.383Z,506.00
2023-05-02T02:47:33.446Z,511.00
2023-05-02T02:48:33.448Z,511.00
2023-05-02T02:49:33.451Z,506.00
2023-05-02T02:50:33.373Z,511.00
2023-05-02T02:51:33.383Z,513.00
2023-05-02T02:52:33.375Z,508.00
2023-05-02T02:53:33.368Z,506.00
2023-05-02T02:54:33.398Z,506.00
2023-05-02T02:55:33.391Z,508.00
2023-05-02T02:56:33.381Z,505.00
2023-05-02T02:57:33.452Z,504.00
2023-05-02T02:58:33.367Z,507.00
2023-05-02T02:59:33.377Z,509.00
2023-05-02T03:00:33.373Z,506.00
2023-05-02T03:01:33.464Z,504.00
2023-05-02T03:02:33.578Z,508.00
2023-05-02T03:03:33.518Z,510.00
2023-05-02T03:04:33.356Z,512.00
2023-05-02T03:05:34.064Z,502.00
2023-05-02T03:06:33.426Z,506.00
2023-05-02T03:07:34.046Z,511.00
2023-05-02T03:08:33.393Z,507.00
2023-05-02T03:09:33.575Z,506.00
2023-05-02T03:10:33.410Z,509.00
2023-05-02T03:11:33.407Z,505.00
2023-05-02T03:12:33.453Z,509.00
2023-05-02T03:13:33.436Z,506.00
2023-05-02T03:14:33.406Z,507.00
2023-05-02T03:15:33.423Z,509.00
2023-05-02T03:16:33.513Z,511.00
2023-05-02T03:17:33.476Z,507.00
2023-05-02T03:18:33.437Z,511.00
2023-05-02T03:19:33.475Z,506.00
2023-05-02T03:20:33.561Z,509.00
2023-05-02T03:21:33.497Z,509.00
2023-05-02T03:22:33.496Z,511.00
2023-05-02T03:23:33.508Z,508.00
2023-05-02T03:24:33.514Z,507.00
2023-05-02T03:25:33.530Z,510.00
2023-05-02T03:26:33.644Z,503.00
2023-05-02T03:27:33.578Z,511.00
2023-05-02T03:28:33.608Z,510.00
2023-05-02T03:29:33.618Z,516.00
2023-05-02T03:30:33.636Z,509.00
2023-05-02T03:31:33.715Z,506.00
2023-05-02T03:32:33.767Z,505.00
2023-05-02T03:33:33.778Z,509.00
2023-05-02T03:34:33.779Z,506.00
2023-05-02T03:35:33.816Z,510.00
2023-05-02T03:36:33.854Z,508.00
2023-05-02T03:37:33.905Z,504.00
2023-05-02T03:38:33.953Z,509.00
2023-05-02T03:39:34.011Z,510.00
2023-05-02T03:40:34.033Z,512.00
2023-05-02T03:41:34.071Z,508.00
2023-05-02T03:42:34.116Z,508.00
2023-05-02T03:43:34.153Z,506.00
2023-05-02T03:44:34.202Z,512.00
2023-05-02T03:45:34.258Z,510.00
2023-05-02T03:46:34.418Z,510.00
2023-05-02T03:47:34.402Z,514.00
2023-05-02T03:48:34.414Z,507.00
2023-05-02T03:49:34.476Z,506.00
2023-05-02T03:50:34.535Z,504.00
2023-05-02T03:51:34.607Z,511.00
2023-05-02T03:52:34.648Z,503.00
2023-05-02T03:53:34.691Z,510.00
2023-05-02T03:54:34.763Z,511.00
2023-05-02T03:55:34.806Z,508.00
2023-05-02T03:56:34.870Z,510.00
2023-05-02T03:57:34.984Z,510.00
2023-05-02T03:58:34.982Z,503.00
2023-05-02T03:59:35.034Z,511.00
2023-05-02T04:00:35.091Z,512.00
2023-05-02T04:01:35.194Z,507.00
2023-05-02T04:02:35.307Z,508.00
2023-05-02T04:03:35.354Z,512.00
2023-05-02T04:04:35.382Z,511.00
2023-05-02T04:05:35.373Z,507.00
2023-05-02T04:06:35.573Z,516.00
2023-05-02T04:07:35.481Z,509.00
2023-05-02T04:08:35.519Z,510.00
2023-05-02T04:09:35.669Z,510.00
2023-05-02T04:10:35.636Z,508.00
2023-05-02T04:11:36.581Z,513.00
2023-05-02T04:12:35.743Z,509.00
2023-05-02T04:13:35.802Z,513.00
2023-05-02T04:14:35.862Z,505.00
2023-05-02T04:15:35.915Z,512.00
2023-05-02T04:16:35.994Z,504.00
2023-05-02T04:17:36.037Z,507.00
2023-05-02T04:18:36.067Z,510.00
2023-05-02T04:19:36.131Z,506.00
2023-05-02T04:20:36.187Z,509.00
2023-05-02T04:21:36.240Z,510.00
2023-05-02T04:22:36.288Z,502.00
2023-05-02T04:23:36.354Z,506.00
2023-05-02T04:24:36.403Z,509.00
2023-05-02T04:25:36.458Z,509.00
2023-05-02T04:26:36.498Z,508.00
2023-05-02T04:27:36.546Z,508.00
2023-05-02T04:28:36.601Z,511.00
2023-05-02T04:29:36.663Z,512.00
2023-05-02T04:30:36.767Z,505.00
2023-05-02T04:31:37.618Z,509.00
2023-05-02T04:32:36.823Z,510.00
2023-05-02T04:33:36.852Z,508.00
2023-05-02T04:34:36.896Z,510.00
2023-05-02T04:35:36.949Z,503.00
2023-05-02T04:36:36.997Z,511.00
2023-05-02T04:37:37.056Z,509.00
2023-05-02T04:38:37.104Z,504.00
2023-05-02T04:39:37.582Z,508.00
2023-05-02T04:40:37.209Z,507.00
2023-05-02T04:41:37.253Z,506.00
2023-05-02T04:42:37.318Z,510.00
2023-05-02T04:43:37.367Z,513.00
2023-05-02T04:44:37.423Z,510.00
2023-05-02T04:45:37.462Z,509.00
2023-05-02T04:46:37.564Z,512.00
2023-05-02T04:47:37.599Z,512.00
2023-05-02T04:48:37.615Z,511.00
2023-05-02T04:49:37.656Z,514.00
2023-05-02T04:50:37.716Z,513.00
2023-05-02T04:51:37.769Z,508.00
2023-05-02T04:52:37.815Z,506.00
2023-05-02T04:53:37.865Z,511.00
2023-05-02T04:54:37.921Z,511.00
2023-05-02T04:55:37.973Z,509.00
2023-05-02T04:56:38.032Z,509.00
2023-05-02T04:57:38.066Z,508.00
2023-05-02T04:58:38.120Z,504.00
2023-05-02T04:59:38.192Z,500.00
2023-05-02T05:00:38.238Z,505.00
2023-05-02T05:01:38.332Z,507.00
2023-05-02T05:02:38.426Z,514.00
2023-05-02T05:03:38.481Z,515.00
2023-05-02T05:04:38.482Z,510.00
2023-05-02T05:05:38.526Z,509.00
2023-05-02T05:06:38.597Z,504.00
2023-05-02T05:07:38.633Z,510.00
2023-05-02T05:08:38.683Z,511.00
2023-05-02T05:09:39.108Z,509.00
2023-05-02T05:10:38.783Z,509.00
2023-05-02T05:11:38.843Z,506.00
2023-05-02T05:12:38.921Z,508.00
2023-05-02T05:13:38.943Z,507.00
2023-05-02T05:14:39.063Z,513.00
2023-05-02T05:15:39.049Z,508.00
2023-05-02T05:16:39.183Z,508.00
2023-05-02T05:17:39.205Z,501.00
2023-05-02T05:18:39.210Z,507.00
2023-05-02T05:19:39.279Z,508.00
2023-05-02T05:20:39.327Z,507.00
2023-05-02T05:21:39.377Z,507.00
2023-05-02T05:22:39.428Z,503.00
2023-05-02T05:23:39.474Z,512.00
2023-05-02T05:24:39.527Z,514.00
2023-05-02T05:25:39.584Z,519.00
2023-05-02T05:26:39.641Z,525.00
2023-05-02T05:27:39.736Z,526.00
2023-05-02T05:28:39.757Z,525.00
2023-05-02T05:29:39.803Z,522.00
2023-05-02T05:30:39.854Z,533.00
2023-05-02T05:31:39.928Z,535.00
2023-05-02T05:32:39.966Z,538.00
2023-05-02T05:33:39.992Z,533.00
2023-05-02T05:34:40.016Z,532.00
2023-05-02T05:35:40.117Z,536.00
2023-05-02T05:36:40.150Z,537.00
2023-05-02T05:37:41.162Z,530.00
2023-05-02T05:38:40.229Z,532.00
2023-05-02T05:39:40.368Z,534.00
2023-05-02T05:40:41.062Z,538.00
2023-05-02T05:41:40.390Z,540.00
2023-05-02T05:42:40.450Z,542.00
2023-05-02T05:43:40.502Z,541.00
2023-05-02T05:44:40.561Z,539.00
2023-05-02T05:45:40.622Z,538.00
2023-05-02T05:46:40.726Z,544.00
2023-05-02T05:47:40.813Z,544.00
2023-05-02T05:48:40.847Z,538.00
2023-05-02T05:49:40.835Z,540.00
2023-05-02T05:50:40.887Z,537.00
2023-05-02T05:51:40.948Z,541.00
2023-05-02T05:52:41.017Z,538.00
2023-05-02T05:53:41.059Z,535.00
2023-05-02T05:54:41.113Z,542.00
2023-05-02T05:55:42.329Z,541.00
2023-05-02T05:56:41.227Z,540.00
2023-05-02T05:57:41.261Z,539.00
2023-05-02T05:58:41.404Z,539.00
2023-05-02T05:59:41.375Z,541.00
2023-05-02T06:00:41.421Z,542.00
2023-05-02T06:01:41.482Z,546.00
2023-05-02T06:02:42.257Z,532.00
2023-05-02T06:03:41.747Z,543.00
2023-05-02T06:04:41.673Z,540.00
2023-05-02T06:05:41.680Z,539.00
2023-05-02T06:06:41.755Z,540.00
2023-05-02T06:07:41.788Z,538.00
2023-05-02T06:08:41.837Z,544.00
2023-05-02T06:09:42.634Z,545.00
2023-05-02T06:10:41.945Z,544.00
2023-05-02T06:11:41.995Z,547.00
2023-05-02T06:12:42.049Z,551.00
2023-05-02T06:13:42.187Z,547.00
2023-05-02T06:14:42.180Z,545.00
2023-05-02T06:15:42.240Z,545.00
2023-05-02T06:16:42.513Z,541.00
2023-05-02T06:17:42.338Z,546.00
2023-05-02T06:18:42.414Z,549.00
2023-05-02T06:19:42.417Z,551.00
2023-05-02T06:20:42.471Z,539.00
2023-05-02T06:21:42.515Z,549.00
2023-05-02T06:22:42.624Z,545.00
2023-05-02T06:23:42.617Z,547.00
2023-05-02T06:24:42.676Z,546.00
2023-05-02T06:25:42.746Z,548.00
2023-05-02T06:26:42.775Z,546.00
2023-05-02T06:27:42.833Z,549.00
2023-05-02T06:28:42.891Z,544.00
2023-05-02T06:29:43.045Z,557.00
2023-05-02T06:30:43.009Z,541.00
2023-05-02T06:31:44.148Z,541.00
2023-05-02T06:32:42.981Z,542.00
2023-05-02T06:33:43.615Z,543.00
2023-05-02T06:34:42.938Z,544.00
2023-05-02T06:35:42.929Z,549.00
2023-05-02T06:36:42.918Z,543.00
2023-05-02T06:37:43.013Z,552.00
2023-05-02T06:38:43.713Z,547.00
2023-05-02T06:39:42.973Z,548.00
2023-05-02T06:40:43.011Z,546.00
2023-05-02T06:41:43.138Z,547.00
2023-05-02T06:42:43.145Z,545.00
2023-05-02T06:43:43.178Z,545.00
2023-05-02T06:44:43.227Z,541.00
2023-05-02T06:45:43.358Z,537.00
2023-05-02T06:46:43.390Z,540.00
2023-05-02T06:47:43.456Z,539.00
2023-05-02T06:48:43.522Z,536.00
2023-05-02T06:49:43.505Z,542.00
2023-05-02T06:50:43.583Z,545.00
2023-05-02T06:51:43.718Z,539.00
2023-05-02T06:52:43.690Z,545.00
2023-05-02T06:53:43.789Z,541.00
2023-05-02T06:54:44.796Z,546.00
2023-05-02T06:55:43.843Z,543.00
2023-05-02T06:56:43.902Z,540.00
2023-05-02T06:57:43.974Z,534.00
2023-05-02T06:58:44.021Z,538.00
2023-05-02T06:59:44.085Z,528.00
2023-05-02T07:00:44.202Z,537.00
2023-05-02T07:01:44.194Z,538.00
2023-05-02T07:02:44.279Z,538.00
2023-05-02T07:03:44.317Z,530.00
2023-05-02T07:04:44.417Z,538.00
2023-05-02T07:05:44.426Z,538.00
2023-05-02T07:06:44.564Z,540.00
2023-05-02T07:07:44.585Z,537.00
2023-05-02T07:08:44.575Z,538.00
2023-05-02T07:09:44.635Z,538.00
2023-05-02T07:10:44.683Z,535.00
2023-05-02T07:11:44.732Z,533.00
2023-05-02T07:12:44.789Z,541.00
2023-05-02T07:13:44.856Z,530.00
2023-05-02T07:14:44.905Z,535.00
2023-05-02T07:15:45.636Z,536.00
2023-05-02T07:16:45.107Z,532.00
2023-05-02T07:17:45.097Z,539.00
2023-05-02T07:18:45.101Z,536.00
2023-05-02T07:19:45.781Z,539.00
2023-05-02T07:20:45.206Z,544.00
2023-05-02T07:21:45.257Z,547.00
2023-05-02T07:22:45.320Z,572.00
2023-05-02T07:23:45.366Z,592.00
2023-05-02T07:24:45.422Z,612.00
2023-05-02T07:25:45.443Z,640.00
2023-05-02T07:26:45.483Z,661.00
2023-05-02T07:27:45.515Z,696.00
2023-05-02T07:28:45.531Z,759.00
2023-05-02T07:29:45.554Z,813.00
2023-05-02T07:30:45.700Z,877.00
2023-05-02T07:31:45.628Z,922.00
2023-05-02T07:32:45.595Z,978.00
2023-05-02T07:33:45.571Z,1029.00
2023-05-02T07:34:45.577Z,1090.00
2023-05-02T07:35:45.558Z,1207.00
2023-05-02T07:36:45.555Z,1268.00
2023-05-02T07:37:45.609Z,1313.00
2023-05-02T07:38:45.566Z,1365.00
2023-05-02T07:39:45.524Z,1433.00
2023-05-02T07:40:45.515Z,1478.00
2023-05-02T07:41:45.502Z,1535.00
2023-05-02T07:42:45.515Z,1593.00
2023-05-02T07:43:45.530Z,1642.00
2023-05-02T07:44:45.537Z,1683.00
2023-05-02T07:45:45.615Z,1742.00
2023-05-02T07:46:45.700Z,1790.00
2023-05-02T07:47:45.605Z,1823.00
2023-05-02T07:48:46.085Z,1859.00
2023-05-02T07:49:45.620Z,1913.00
2023-05-02T07:50:45.649Z,1945.00
2023-05-02T07:51:45.738Z,1991.00
2023-05-02T07:52:45.728Z,2030.00
2023-05-02T07:53:45.777Z,2061.00
2023-05-02T07:54:45.839Z,2093.00
2023-05-02T07:55:45.929Z,2125.00
2023-05-02T07:56:45.903Z,2165.00
2023-05-02T07:57:45.959Z,2203.00
2023-05-02T07:58:46.048Z,2228.00
2023-05-02T07:59:46.037Z,2254.00
2023-05-02T08:00:46.688Z,2269.00
2023-05-02T08:01:46.121Z,2316.00
2023-05-02T08:02:46.384Z,2328.00
2023-05-02T08:03:46.328Z,2337.00
2023-05-02T08:04:46.280Z,2374.00
2023-05-02T08:05:46.271Z,2391.00
2023-05-02T08:06:46.333Z,2422.00
2023-05-02T08:07:46.313Z,2452.00
2023-05-02T08:08:46.343Z,2465.00
2023-05-02T08:09:46.380Z,2480.00
2023-05-02T08:10:46.400Z,2507.00
2023-05-02T08:11:46.420Z,2528.00
2023-05-02T08:12:46.439Z,2542.00
2023-05-02T08:13:46.467Z,2542.00
2023-05-02T08:14:47.164Z,2560.00
2023-05-02T08:15:46.656Z,2524.00
2023-05-02T08:16:46.885Z,2052.00
2023-05-02T08:17:46.570Z,1704.00
2023-05-02T08:18:46.579Z,1271.00
2023-05-02T08:19:46.582Z,948.00
2023-05-02T08:20:46.606Z,740.00
2023-05-02T08:21:46.670Z,627.00
2023-05-02T08:22:46.665Z,568.00
2023-05-02T08:23:46.687Z,531.00
2023-05-02T08:24:46.734Z,496.00
2023-05-02T08:25:46.768Z,500.00
2023-05-02T08:26:46.809Z,498.00
2023-05-02T08:27:46.883Z,501.00
2023-05-02T08:28:46.918Z,542.00
2023-05-02T08:29:46.982Z,573.00
2023-05-02T08:30:47.017Z,606.00
2023-05-02T08:31:47.090Z,648.00
2023-05-02T08:32:47.248Z,711.00
2023-05-02T08:33:47.075Z,740.00
2023-05-02T08:34:47.730Z,795.00
2023-05-02T08:35:47.172Z,848.00
2023-05-02T08:36:47.317Z,874.00
2023-05-02T08:37:47.193Z,878.00
2023-05-02T08:38:47.199Z,917.00
2023-05-02T08:39:47.187Z,943.00
2023-05-02T08:40:47.232Z,982.00
2023-05-02T08:41:47.239Z,1018.00
2023-05-02T08:42:47.287Z,1064.00
2023-05-02T08:43:47.345Z,1104.00
2023-05-02T08:44:47.377Z,1136.00
2023-05-02T08:45:47.425Z,1197.00
2023-05-02T08:46:47.536Z,1210.00
2023-05-02T08:47:47.567Z,1278.00
2023-05-02T08:48:47.679Z,1291.00
2023-05-02T08:49:47.603Z,1337.00
2023-05-02T08:50:47.616Z,1383.00
2023-05-02T08:51:47.625Z,1417.00
2023-05-02T08:52:48.173Z,1474.00
2023-05-02T08:53:48.171Z,1526.00
2023-05-02T08:54:47.681Z,1554.00
2023-05-02T08:55:47.768Z,1596.00
2023-05-02T08:56:47.704Z,1622.00
2023-05-02T08:57:47.733Z,1673.00
2023-05-02T08:58:47.729Z,1709.00
2023-05-02T08:59:47.795Z,1728.00
2023-05-02T09:00:47.877Z,1768.00
2023-05-02T09:01:47.788Z,1785.00
2023-05-02T09:02:47.842Z,1814.00
2023-05-02T09:03:47.872Z,1823.00
2023-05-02T09:04:47.826Z,1849.00
2023-05-02T09:05:47.765Z,1895.00
2023-05-02T09:06:47.850Z,1895.00
2023-05-02T09:07:47.776Z,1922.00
2023-05-02T09:08:48.691Z,1954.00
2023-05-02T09:09:47.754Z,1973.00
2023-05-02T09:10:47.759Z,2001.00
2023-05-02T09:11:47.742Z,2035.00
2023-05-02T09:12:47.756Z,2076.00
2023-05-02T09:13:47.796Z,2100.00
2023-05-02T09:14:47.695Z,2148.00
2023-05-02T09:15:47.690Z,2180.00
2023-05-02T09:16:47.808Z,2205.00
2023-05-02T09:17:47.719Z,2241.00
2023-05-02T09:18:47.659Z,2252.00
2023-05-02T09:19:47.648Z,2269.00
2023-05-02T09:20:47.649Z,2279.00
2023-05-02T09:21:47.622Z,2307.00
2023-05-02T09:22:47.617Z,2355.00
2023-05-02T09:23:47.642Z,2375.00
2023-05-02T09:24:47.664Z,2404.00
2023-05-02T09:25:47.692Z,2442.00
2023-05-02T09:26:47.728Z,2452.00
2023-05-02T09:27:47.784Z,2494.00
2023-05-02T09:28:47.896Z,2497.00
2023-05-02T09:29:47.867Z,2543.00
2023-05-02T09:30:48.208Z,2568.00
2023-05-02T09:31:55.694Z,2578.00
2023-05-02T09:32:48.974Z,2580.00
2023-05-02T09:33:47.888Z,2590.00
2023-05-02T09:34:47.932Z,2610.00
2023-05-02T09:35:47.851Z,2639.00
2023-05-02T09:36:47.823Z,2703.00
2023-05-02T09:37:47.794Z,2726.00
2023-05-02T09:38:47.774Z,2742.00
2023-05-02T09:39:47.738Z,2765.00
2023-05-02T09:40:47.714Z,2791.00
2023-05-02T09:41:47.684Z,2817.00
2023-05-02T09:42:47.676Z,2827.00
2023-05-02T09:43:47.709Z,2845.00
2023-05-02T09:44:47.722Z,2872.00
2023-05-02T09:45:47.762Z,2890.00
2023-05-02T09:46:47.776Z,2909.00
2023-05-02T09:47:47.835Z,2937.00
2023-05-02T09:48:47.801Z,2948.00
2023-05-02T09:49:47.809Z,2979.00
2023-05-02T09:50:47.824Z,2996.00
2023-05-02T09:51:47.833Z,2993.00
2023-05-02T09:52:47.861Z,3006.00
2023-05-02T09:53:47.881Z,3014.00
2023-05-02T09:54:47.968Z,3008.00
2023-05-02T09:55:47.943Z,3010.00
2023-05-02T09:56:47.990Z,3013.00
2023-05-02T09:57:48.024Z,2993.00
2023-05-02T09:58:48.134Z,2968.00
2023-05-02T09:59:48.125Z,2943.00
2023-05-02T10:00:48.146Z,2887.00
2023-05-02T10:01:48.151Z,2837.00
2023-05-02T10:02:48.225Z,2790.00
2023-05-02T10:03:48.284Z,2722.00
2023-05-02T10:04:48.246Z,2679.00
2023-05-02T10:05:48.315Z,2661.00
2023-05-02T10:06:48.384Z,2652.00
2023-05-02T10:07:51.192Z,2655.00
2023-05-02T10:08:48.368Z,2656.00
2023-05-02T10:09:48.334Z,2668.00
2023-05-02T10:10:48.316Z,2690.00
2023-05-02T10:11:48.295Z,2673.00
2023-05-02T10:12:48.711Z,2636.00
2023-05-02T10:13:48.312Z,2645.00
2023-05-02T10:14:48.214Z,2644.00
2023-05-02T10:15:48.211Z,2614.00
2023-05-02T10:16:48.181Z,2624.00
2023-05-02T10:17:48.225Z,2630.00
2023-05-02T10:18:48.127Z,2611.00
2023-05-02T10:19:48.115Z,2596.00
2023-05-02T10:20:48.209Z,2614.00
2023-05-02T10:21:48.072Z,2622.00
2023-05-02T10:22:48.092Z,2626.00
2023-05-02T10:23:48.149Z,2636.00
2023-05-02T10:24:48.014Z,2637.00
2023-05-02T10:25:48.124Z,2628.00
2023-05-02T10:26:47.973Z,2623.00
2023-05-02T10:27:47.963Z,2636.00
2023-05-02T10:28:47.950Z,2626.00
2023-05-02T10:29:47.947Z,2623.00
2023-05-02T10:30:47.931Z,2619.00
2023-05-02T10:31:47.930Z,2602.00
2023-05-02T10:32:47.923Z,2602.00
2023-05-02T10:33:47.871Z,2596.00
2023-05-02T10:34:48.714Z,2601.00
2023-05-02T10:35:47.841Z,2578.00
2023-05-02T10:36:47.818Z,2571.00
2023-05-02T10:37:47.845Z,2582.00
2023-05-02T10:38:47.790Z,2567.00
2023-05-02T10:39:47.765Z,2567.00
2023-05-02T10:40:47.744Z,2566.00
2023-05-02T10:41:47.737Z,2563.00
2023-05-02T10:42:47.711Z,2543.00
2023-05-02T10:43:47.689Z,2546.00
2023-05-02T10:44:47.718Z,2551.00
2023-05-02T10:45:47.782Z,2540.00
2023-05-02T10:46:47.835Z,2528.00
2023-05-02T10:47:47.904Z,2530.00
2023-05-02T10:48:47.904Z,2518.00
2023-05-02T10:49:47.952Z,2514.00
2023-05-02T10:50:47.998Z,2508.00
2023-05-02T10:51:48.046Z,2505.00
2023-05-02T10:52:48.091Z,2505.00
2023-05-02T10:53:48.149Z,2492.00
2023-05-02T10:54:48.714Z,2494.00
2023-05-02T10:55:49.306Z,2484.00
2023-05-02T10:56:48.262Z,2470.00
2023-05-02T10:57:48.320Z,2470.00
2023-05-02T10:58:48.727Z,2469.00
2023-05-02T10:59:48.414Z,2470.00
2023-05-02T11:00:49.221Z,2450.00
2023-05-02T11:01:48.533Z,2455.00
2023-05-02T11:02:48.627Z,2449.00
2023-05-02T11:03:48.586Z,2447.00
2023-05-02T11:04:48.635Z,2444.00
2023-05-02T11:05:48.697Z,2451.00
2023-05-02T11:06:48.789Z,2446.00
2023-05-02T11:07:48.789Z,2436.00
2023-05-02T11:08:48.842Z,2427.00
2023-05-02T11:09:48.876Z,2423.00
2023-05-02T11:10:48.955Z,2408.00
2023-05-02T11:11:48.994Z,2402.00
2023-05-02T11:12:49.171Z,2397.00
2023-05-02T11:13:49.230Z,2409.00
2023-05-02T11:14:49.152Z,2390.00
2023-05-02T11:15:49.282Z,2387.00
2023-05-02T11:16:49.429Z,2391.00
2023-05-02T11:17:49.341Z,2389.00
2023-05-02T11:18:49.405Z,2363.00
2023-05-02T11:19:49.411Z,2360.00
2023-05-02T11:20:49.469Z,2360.00
2023-05-02T11:21:50.236Z,2341.00
2023-05-02T11:22:49.567Z,2342.00
2023-05-02T11:23:49.606Z,2340.00
2023-05-02T11:24:49.715Z,2342.00
2023-05-02T11:25:49.704Z,2339.00
2023-05-02T11:26:49.781Z,2325.00
2023-05-02T11:27:49.820Z,2322.00
2023-05-02T11:28:49.865Z,2309.00
2023-05-02T11:29:49.913Z,2309.00
2023-05-02T11:30:49.977Z,2326.00
2023-05-02T11:31:50.098Z,2304.00
2023-05-02T11:32:50.204Z,2298.00
2023-05-02T11:33:50.110Z,2300.00
2023-05-02T11:34:50.234Z,2291.00
2023-05-02T11:35:50.203Z,2292.00
2023-05-02T11:36:50.312Z,2291.00
2023-05-02T11:37:50.303Z,2280.00
2023-05-02T11:38:50.336Z,2276.00
2023-05-02T11:39:50.393Z,2269.00
2023-05-02T11:40:50.443Z,2266.00
2023-05-02T11:41:50.508Z,2269.00
2023-05-02T11:42:50.585Z,2258.00
2023-05-02T11:43:50.756Z,2261.00
2023-05-02T11:44:50.649Z,2243.00
2023-05-02T11:45:50.769Z,2244.00
2023-05-02T11:46:50.724Z,2248.00
2023-05-02T11:47:50.767Z,2247.00
2023-05-02T11:48:50.807Z,2193.00
2023-05-02T11:49:51.835Z,2147.00
2023-05-02T11:50:51.021Z,2205.00
2023-05-02T11:51:50.820Z,2231.00
2023-05-02T11:52:50.831Z,2143.00
2023-05-02T11:53:50.837Z,2119.00
2023-05-02T11:54:50.827Z,2055.00
2023-05-02T11:55:51.263Z,2003.00
2023-05-02T11:56:50.834Z,2003.00
2023-05-02T11:57:50.826Z,1968.00
2023-05-02T11:58:50.828Z,1984.00
2023-05-02T11:59:50.822Z,1982.00
2023-05-02T12:00:50.810Z,1987.00
2023-05-02T12:01:50.811Z,1983.00
2023-05-02T12:02:50.873Z,1987.00
2023-05-02T12:03:50.851Z,1964.00
2023-05-02T12:04:50.794Z,1969.00
2023-05-02T12:05:50.829Z,1964.00
2023-05-02T12:06:50.844Z,1971.00
2023-05-02T12:07:50.790Z,1961.00
2023-05-02T12:08:50.796Z,1960.00
2023-05-02T12:09:50.798Z,1972.00
2023-05-02T12:10:50.814Z,1955.00
2023-05-02T12:11:50.832Z,1940.00
2023-05-02T12:12:50.809Z,1933.00
2023-05-02T12:13:50.993Z,1930.00
2023-05-02T12:14:50.831Z,1913.00
2023-05-02T12:15:50.847Z,1920.00
2023-05-02T12:16:50.812Z,1926.00
2023-05-02T12:17:50.880Z,1908.00
2023-05-02T12:18:50.900Z,1912.00
2023-05-02T12:19:50.833Z,1903.00
2023-05-02T12:20:50.846Z,1913.00